createdAt,value
2019-05-14T00:00:10.966Z,101844
2019-05-14T00:05:12.107Z,101844
2019-05-14T00:10:11.824Z,101836
2019-05-14T00:15:11.160Z,101838
2019-05-14T00:20:13.090Z,101842
2019-05-14T00:25:11.650Z,101845
2019-05-14T00:30:11.445Z,101843
2019-05-14T00:35:11.248Z,101838
2019-05-14T00:40:11.731Z,101844
2019-05-14T00:45:11.497Z,101853
2019-05-14T00:50:11.346Z,101849
2019-05-14T00:55:11.693Z,101845
2019-05-14T01:00:11.631Z,101844
2019-05-14T01:05:12.353Z,101842
2019-05-14T01:10:11.559Z,101843
2019-05-14T01:15:13.998Z,101844
2019-05-14T01:20:12.291Z,101835
2019-05-14T01:25:11.951Z,101843
2019-05-14T01:30:12.418Z,101822
2019-05-14T01:35:11.973Z,101834
2019-05-14T01:40:11.367Z,101841
2019-05-14T01:45:23.745Z,101833
2019-05-14T01:50:11.446Z,101837
2019-05-14T01:55:11.352Z,101848
2019-05-14T02:00:11.423Z,101853
2019-05-14T02:05:12.411Z,101848
2019-05-14T02:10:11.581Z,101845
2019-05-14T02:15:11.993Z,101852
2019-05-14T02:20:12.524Z,101845
2019-05-14T02:25:11.596Z,101841
2019-05-14T02:30:10.885Z,101837
2019-05-14T02:35:10.891Z,101828
2019-05-14T02:40:10.933Z,101834
2019-05-14T02:45:10.883Z,101830
2019-05-14T02:50:10.916Z,101834
2019-05-14T02:55:10.929Z,101831
2019-05-14T03:00:10.879Z,101833
2019-05-14T03:05:10.906Z,101825
2019-05-14T03:10:10.877Z,101825
2019-05-14T03:15:10.914Z,101825
2019-05-14T03:20:10.891Z,101825
2019-05-14T03:25:10.869Z,101839
2019-05-14T03:30:12.874Z,101845
2019-05-14T03:35:13.094Z,101829
2019-05-14T03:40:10.889Z,101838
2019-05-14T03:45:10.857Z,101831
2019-05-14T03:50:10.905Z,101823
2019-05-14T03:55:10.850Z,101819
2019-05-14T04:00:10.871Z,101821
2019-05-14T04:05:10.885Z,101812
2019-05-14T04:10:10.887Z,101817
2019-05-14T04:15:10.793Z,101809
2019-05-14T04:20:10.880Z,101811
2019-05-14T04:25:11.374Z,101805
2019-05-14T04:30:10.852Z,101808
2019-05-14T04:35:10.853Z,101797
2019-05-14T04:40:10.819Z,101813
2019-05-14T04:45:11.459Z,101807
2019-05-14T04:50:11.045Z,101811
2019-05-14T04:55:10.876Z,101815
2019-05-14T05:00:12.057Z,101817
2019-05-14T05:05:10.803Z,101830
2019-05-14T05:10:10.799Z,101816
2019-05-14T05:15:10.762Z,101794
2019-05-14T05:20:10.840Z,101803
2019-05-14T05:25:10.843Z,101797
2019-05-14T05:30:10.845Z,101801
2019-05-14T05:35:10.770Z,101805
2019-05-14T05:40:10.834Z,101813
2019-05-14T05:45:10.782Z,101803
2019-05-14T05:50:10.827Z,101815
2019-05-14T05:55:10.819Z,101811
2019-05-14T06:00:10.766Z,101808
2019-05-14T06:05:10.818Z,101800
2019-05-14T06:10:10.795Z,101795
2019-05-14T06:15:13.865Z,101787
2019-05-14T06:20:10.789Z,101801
2019-05-14T06:25:11.587Z,101785
2019-05-14T06:30:10.760Z,101795
2019-05-14T06:35:10.780Z,101794
2019-05-14T06:40:10.753Z,101792
2019-05-14T06:45:10.785Z,101798
2019-05-14T06:50:10.714Z,101796
2019-05-14T06:55:10.733Z,101793
2019-05-14T07:00:10.739Z,101790
2019-05-14T07:05:10.770Z,101788
2019-05-14T07:10:10.734Z,101800
2019-05-14T07:15:10.732Z,101805
2019-05-14T07:20:10.736Z,101801
2019-05-14T07:25:10.768Z,101797
2019-05-14T07:30:10.759Z,101798
2019-05-14T07:35:10.728Z,101802
2019-05-14T07:40:10.762Z,101809
2019-05-14T07:45:10.686Z,101808
2019-05-14T07:50:10.746Z,101809
2019-05-14T07:55:10.761Z,101808
2019-05-14T08:00:10.709Z,101808
2019-05-14T08:05:10.747Z,101817
2019-05-14T08:10:10.703Z,101791
2019-05-14T08:15:17.548Z,101794
2019-05-14T08:20:10.731Z,101787
2019-05-14T08:25:10.667Z,101785
2019-05-14T08:30:10.742Z,101782
2019-05-14T08:35:10.722Z,101774
2019-05-14T08:40:10.698Z,101782
2019-05-14T08:45:13.753Z,101775
2019-05-14T08:50:10.665Z,101779
2019-05-14T08:55:13.842Z,101757
2019-05-14T09:00:13.617Z,101769
2019-05-14T09:05:11.059Z,101761
2019-05-14T09:10:10.679Z,101738
2019-05-14T09:15:10.700Z,101734
2019-05-14T09:20:11.696Z,101737
2019-05-14T09:25:10.659Z,101732
2019-05-14T09:30:10.689Z,101723
2019-05-14T09:35:10.667Z,101722
2019-05-14T09:40:10.656Z,101732
2019-05-14T09:45:11.561Z,101737
2019-05-14T09:50:22.152Z,101731
2019-05-14T09:55:10.647Z,101708
2019-05-14T10:00:10.626Z,101700
2019-05-14T10:05:10.664Z,101688
2019-05-14T10:10:10.680Z,101684
2019-05-14T10:15:10.638Z,101667
2019-05-14T10:20:10.639Z,101683
2019-05-14T10:25:10.677Z,101694
2019-05-14T10:30:10.686Z,101687
2019-05-14T10:35:10.656Z,101674
2019-05-14T10:40:10.761Z,101675
2019-05-14T10:45:12.791Z,101675
2019-05-14T10:50:13.666Z,101671
2019-05-14T10:55:10.654Z,101653
2019-05-14T11:00:10.617Z,101668
2019-05-14T11:05:10.648Z,101668
2019-05-14T11:10:10.577Z,101660
2019-05-14T11:15:10.619Z,101657
2019-05-14T11:20:10.577Z,101639
2019-05-14T11:25:10.621Z,101656
2019-05-14T11:30:10.657Z,101626
2019-05-14T11:35:12.679Z,101629
2019-05-14T11:40:10.636Z,101630
2019-05-14T11:45:10.633Z,101625
2019-05-14T11:50:11.742Z,101620
2019-05-14T11:55:10.638Z,101617
2019-05-14T12:00:10.598Z,101623
2019-05-14T12:05:10.620Z,101615
2019-05-14T12:10:10.616Z,101601
2019-05-14T12:15:10.577Z,101594
2019-05-14T12:20:10.573Z,101590
2019-05-14T12:25:10.598Z,101568
2019-05-14T12:30:10.580Z,101567
2019-05-14T12:35:10.605Z,101557
2019-05-14T12:40:10.554Z,101544
2019-05-14T12:45:10.611Z,101551
2019-05-14T12:50:10.540Z,101544
2019-05-14T12:55:10.581Z,101546
2019-05-14T13:00:10.578Z,101525
2019-05-14T13:05:10.537Z,101530
2019-05-14T13:10:10.581Z,101537
2019-05-14T13:15:10.534Z,101517
2019-05-14T13:20:13.539Z,101519
2019-05-14T13:25:11.232Z,101508
2019-05-14T13:30:10.539Z,101491
2019-05-14T13:35:13.655Z,101494
2019-05-14T13:40:13.601Z,101480
2019-05-14T13:45:10.638Z,101477
2019-05-14T13:50:10.525Z,101479
2019-05-14T13:55:10.572Z,101469
2019-05-14T14:00:11.623Z,101476
2019-05-14T14:05:10.519Z,101480
2019-05-14T14:10:10.731Z,101475
2019-05-14T14:15:10.554Z,101473
2019-05-14T14:20:10.510Z,101463
2019-05-14T14:25:10.517Z,101461
2019-05-14T14:30:10.553Z,101471
2019-05-14T14:35:10.664Z,101449
2019-05-14T14:40:11.201Z,101449
2019-05-14T14:45:10.535Z,101438
2019-05-14T14:50:10.507Z,101439
2019-05-14T14:55:10.524Z,101435
2019-05-14T15:00:11.444Z,101446
2019-05-14T15:05:13.985Z,101441
2019-05-14T15:10:10.486Z,101447
2019-05-14T15:15:10.447Z,101439
2019-05-14T15:20:10.883Z,101437
2019-05-14T15:25:10.490Z,101429
2019-05-14T15:30:10.471Z,101423
2019-05-14T15:35:11.268Z,101426
2019-05-14T15:40:10.438Z,101418
2019-05-14T15:45:10.519Z,101420
2019-05-14T15:50:10.452Z,101425
2019-05-14T15:55:10.507Z,101416
2019-05-14T16:00:10.457Z,101414
2019-05-14T16:05:10.551Z,101404
2019-05-14T16:10:10.486Z,101406
2019-05-14T16:15:10.501Z,101399
2019-05-14T16:20:10.435Z,101395
2019-05-14T16:25:10.447Z,101396
2019-05-14T16:30:10.553Z,101399
2019-05-14T16:35:10.436Z,101387
2019-05-14T16:40:10.483Z,101385
2019-05-14T16:45:10.465Z,101383
2019-05-14T16:50:10.457Z,101383
2019-05-14T16:55:22.408Z,101380
2019-05-14T17:00:10.555Z,101370
2019-05-14T17:05:10.468Z,101370
2019-05-14T17:10:10.380Z,101382
2019-05-14T17:15:10.451Z,101380
2019-05-14T17:20:10.378Z,101388
2019-05-14T17:25:10.403Z,101378
2019-05-14T17:30:10.461Z,101377
2019-05-14T17:35:10.737Z,101377
2019-05-14T17:40:10.413Z,101372
2019-05-14T17:45:10.405Z,101366
2019-05-14T17:50:10.430Z,101367
2019-05-14T17:55:11.949Z,101379
2019-05-14T18:00:10.392Z,101369
2019-05-14T18:05:10.393Z,101371
2019-05-14T18:10:10.433Z,101379
2019-05-14T18:15:10.384Z,101380
2019-05-14T18:20:10.424Z,101387
2019-05-14T18:25:10.372Z,101376
2019-05-14T18:30:10.386Z,101378
2019-05-14T18:35:10.418Z,101383
2019-05-14T18:40:10.427Z,101378
2019-05-14T18:45:10.416Z,101379
2019-05-14T18:50:10.321Z,101386
2019-05-14T18:55:10.393Z,101396
2019-05-14T19:00:10.342Z,101396
2019-05-14T19:05:10.379Z,101390
2019-05-14T19:10:10.337Z,101389
2019-05-14T19:15:10.380Z,101401
2019-05-14T19:20:10.411Z,101392
2019-05-14T19:25:10.323Z,101396
2019-05-14T19:30:10.377Z,101393
2019-05-14T19:35:10.379Z,101402
2019-05-14T19:40:10.337Z,101403
2019-05-14T19:45:10.365Z,101395
2019-05-14T19:50:10.333Z,101389
2019-05-14T19:55:10.326Z,101391
2019-05-14T20:00:10.368Z,101396
2019-05-14T20:05:10.330Z,101398
2019-05-14T20:10:10.358Z,101399
2019-05-14T20:15:10.286Z,101412
2019-05-14T20:20:10.340Z,101404
2019-05-14T20:25:10.321Z,101405
2019-05-14T20:30:10.359Z,101397
2019-05-14T20:35:10.305Z,101390
2019-05-14T20:40:10.278Z,101391
2019-05-14T20:45:10.346Z,101378
2019-05-14T20:50:10.364Z,101393
2019-05-14T20:55:10.294Z,101376
2019-05-14T21:00:11.546Z,101380
2019-05-14T21:05:13.331Z,101381
2019-05-14T21:10:10.313Z,101382
2019-05-14T21:15:10.346Z,101374
2019-05-14T21:20:10.285Z,101376
2019-05-14T21:25:12.444Z,101376
2019-05-14T21:30:10.293Z,101373
2019-05-14T21:35:10.241Z,101376
2019-05-14T21:40:10.268Z,101371
2019-05-14T21:45:10.303Z,101366
2019-05-14T21:50:10.233Z,101363
2019-05-14T21:55:10.295Z,101361
2019-05-14T22:00:10.276Z,101358
2019-05-14T22:05:10.473Z,101367
2019-05-14T22:10:10.281Z,101343
2019-05-14T22:15:10.245Z,101348
2019-05-14T22:20:10.283Z,101341
2019-05-14T22:25:10.245Z,101327
2019-05-14T22:30:10.287Z,101325
2019-05-14T22:35:10.380Z,101332
2019-05-14T22:40:10.233Z,101323
2019-05-14T22:45:10.306Z,101318
2019-05-14T22:50:10.259Z,101320
2019-05-14T22:55:10.279Z,101321
2019-05-14T23:00:10.208Z,101325
2019-05-14T23:05:10.216Z,101315
2019-05-14T23:10:10.208Z,101318
2019-05-14T23:15:10.262Z,101311
2019-05-14T23:20:10.265Z,101309
2019-05-14T23:25:10.215Z,101299
2019-05-14T23:30:10.243Z,101302
2019-05-14T23:35:10.217Z,101298
2019-05-14T23:40:10.210Z,101295
2019-05-14T23:45:10.230Z,101304
2019-05-14T23:50:10.245Z,101303
2019-05-14T23:55:10.227Z,101297
